createdAt,value
2023-05-09T00:01:13.210Z,99.90
2023-05-09T00:03:49.372Z,99.90
2023-05-09T00:07:06.165Z,99.90
2023-05-09T00:09:38.505Z,99.90
2023-05-09T00:12:14.415Z,99.90
2023-05-09T00:14:52.354Z,99.90
2023-05-09T00:17:24.623Z,99.90
2023-05-09T00:20:02.245Z,99.90
2023-05-09T00:22:34.782Z,99.90
2023-05-09T00:25:18.454Z,99.90
2023-05-09T00:27:54.455Z,99.90
2023-05-09T00:30:30.777Z,99.90
2023-05-09T00:33:06.678Z,99.90
2023-05-09T00:35:45.911Z,99.90
2023-05-09T00:38:21.982Z,99.90
2023-05-09T00:40:54.849Z,99.90
2023-05-09T00:43:30.650Z,99.90
2023-05-09T00:46:04.202Z,99.90
2023-05-09T00:48:37.013Z,99.90
2023-05-09T00:51:12.093Z,99.90
2023-05-09T00:53:48.713Z,99.90
2023-05-09T00:56:25.312Z,99.90
2023-05-09T00:59:02.056Z,99.90
2023-05-09T01:01:34.312Z,99.90
2023-05-09T01:04:07.920Z,99.90
2023-05-09T01:06:49.213Z,99.90
2023-05-09T01:09:29.965Z,99.90
2023-05-09T01:12:11.992Z,99.90
2023-05-09T01:14:54.770Z,99.90
2023-05-09T01:17:37.059Z,99.90
2023-05-09T01:20:17.838Z,99.90
2023-05-09T01:23:11.100Z,99.90
2023-05-09T01:25:55.104Z,99.90
2023-05-09T01:28:37.047Z,99.90
2023-05-09T01:31:13.584Z,99.90
2023-05-09T01:33:51.873Z,99.90
2023-05-09T01:36:30.217Z,99.90
2023-05-09T01:39:04.494Z,99.90
2023-05-09T01:41:39.073Z,99.90
2023-05-09T01:44:14.029Z,99.90
2023-05-09T01:46:51.024Z,99.90
2023-05-09T01:49:24.120Z,99.90
2023-05-09T01:51:59.195Z,99.90
2023-05-09T01:54:33.775Z,99.90
2023-05-09T01:57:08.872Z,99.90
2023-05-09T01:59:45.398Z,99.90
2023-05-09T02:02:21.333Z,99.90
2023-05-09T02:04:56.053Z,99.90
2023-05-09T02:07:30.357Z,99.90
2023-05-09T02:10:05.164Z,99.90
2023-05-09T02:12:38.234Z,99.90
2023-05-09T02:15:11.944Z,99.90
2023-05-09T02:17:47.113Z,99.90
2023-05-09T02:20:19.828Z,99.90
2023-05-09T02:22:52.445Z,99.90
2023-05-09T02:25:25.618Z,99.90
2023-05-09T02:27:58.416Z,99.90
2023-05-09T02:30:37.011Z,99.90
2023-05-09T02:33:14.011Z,99.90
2023-05-09T02:35:47.032Z,99.90
2023-05-09T02:38:20.608Z,99.90
2023-05-09T02:40:53.628Z,99.90
2023-05-09T02:43:25.864Z,99.90
2023-05-09T02:45:58.062Z,99.90
2023-05-09T02:48:33.280Z,99.90
2023-05-09T02:51:06.080Z,99.90
2023-05-09T02:53:38.223Z,99.90
2023-05-09T02:56:11.558Z,99.90
2023-05-09T02:58:51.595Z,99.90
2023-05-09T03:01:24.219Z,99.90
2023-05-09T03:03:59.386Z,99.90
2023-05-09T03:06:32.195Z,99.90
2023-05-09T03:09:04.953Z,99.90
2023-05-09T03:11:37.462Z,99.90
2023-05-09T03:14:11.159Z,99.90
2023-05-09T03:16:43.717Z,99.90
2023-05-09T03:19:18.591Z,99.90
2023-05-09T03:21:51.624Z,99.90
2023-05-09T03:24:24.015Z,99.90
2023-05-09T03:26:56.152Z,99.90
2023-05-09T03:29:29.211Z,99.90
2023-05-09T03:32:02.035Z,99.90
2023-05-09T03:34:37.195Z,99.90
2023-05-09T03:37:09.424Z,99.90
2023-05-09T03:39:42.123Z,99.90
2023-05-09T03:42:14.570Z,99.90
2023-05-09T03:44:47.121Z,99.90
2023-05-09T03:47:19.270Z,99.90
2023-05-09T03:49:54.479Z,99.90
2023-05-09T03:52:26.616Z,99.90
2023-05-09T03:54:59.166Z,99.90
2023-05-09T03:57:31.344Z,99.90
2023-05-09T04:00:06.334Z,99.90
2023-05-09T04:02:39.124Z,99.90
2023-05-09T04:05:14.547Z,99.90
2023-05-09T04:07:47.274Z,99.90
2023-05-09T04:10:20.244Z,99.90
2023-05-09T04:12:52.560Z,99.90
2023-05-09T04:15:24.750Z,99.90
2023-05-09T04:17:57.493Z,99.90
2023-05-09T04:20:32.397Z,99.90
2023-05-09T04:23:05.036Z,99.90
2023-05-09T04:25:37.888Z,99.90
2023-05-09T04:28:10.445Z,99.90
2023-05-09T04:30:43.426Z,99.90
2023-05-09T04:33:17.240Z,99.90
2023-05-09T04:35:52.013Z,99.90
2023-05-09T04:38:25.267Z,99.90
2023-05-09T04:40:58.739Z,99.90
2023-05-09T04:43:34.258Z,99.90
2023-05-09T04:46:09.582Z,99.90
2023-05-09T04:48:42.943Z,99.90
2023-05-09T04:51:18.119Z,99.90
2023-05-09T04:53:52.297Z,99.90
2023-05-09T04:56:24.635Z,99.90
2023-05-09T04:58:56.774Z,99.90
2023-05-09T05:01:31.913Z,99.90
2023-05-09T05:04:05.712Z,99.90
2023-05-09T05:06:40.584Z,99.90
2023-05-09T05:09:23.251Z,99.90
2023-05-09T05:12:01.666Z,99.90
2023-05-09T05:14:44.120Z,99.90
2023-05-09T05:17:20.832Z,99.90
2023-05-09T05:19:53.914Z,99.90
2023-05-09T05:22:31.572Z,99.90
2023-05-09T05:25:17.507Z,99.90
2023-05-09T05:27:50.570Z,99.90
2023-05-09T05:30:22.865Z,99.90
2023-05-09T05:32:55.667Z,99.90
2023-05-09T05:35:31.050Z,99.90
2023-05-09T05:38:08.546Z,99.90
2023-05-09T05:40:40.589Z,99.90
2023-05-09T05:43:13.093Z,99.90
2023-05-09T05:45:46.706Z,99.90
2023-05-09T05:48:18.883Z,99.90
2023-05-09T05:50:55.219Z,99.90
2023-05-09T05:53:34.865Z,99.90
2023-05-09T05:56:08.704Z,99.90
2023-05-09T05:58:41.534Z,99.90
2023-05-09T06:01:21.351Z,99.90
2023-05-09T06:04:00.748Z,99.90
2023-05-09T06:06:34.157Z,99.90
2023-05-09T06:09:09.446Z,99.90
2023-05-09T06:11:42.311Z,99.90
2023-05-09T06:14:15.556Z,99.90
2023-05-09T06:16:47.968Z,99.90
2023-05-09T06:19:20.337Z,99.90
2023-05-09T06:21:52.650Z,99.90
2023-05-09T06:24:35.800Z,99.90
2023-05-09T06:27:12.159Z,99.90
2023-05-09T06:29:45.906Z,99.90
2023-05-09T06:32:22.031Z,99.90
2023-05-09T06:34:55.081Z,99.90
2023-05-09T06:37:31.733Z,99.90
2023-05-09T06:40:10.862Z,99.90
2023-05-09T06:42:43.793Z,99.90
2023-05-09T06:45:18.193Z,99.90
2023-05-09T06:47:51.081Z,99.90
2023-05-09T06:50:23.552Z,99.90
2023-05-09T06:53:04.367Z,99.90
2023-05-09T06:55:42.672Z,99.90
2023-05-09T06:58:15.592Z,99.90
2023-05-09T07:00:48.433Z,99.90
2023-05-09T07:03:23.395Z,99.90
2023-05-09T07:05:57.582Z,99.90
2023-05-09T07:08:29.819Z,99.90
2023-05-09T07:11:06.674Z,99.90
2023-05-09T07:13:41.893Z,99.90
2023-05-09T07:16:15.050Z,99.90
2023-05-09T07:18:49.129Z,99.90
2023-05-09T07:21:21.321Z,99.90
2023-05-09T07:24:35.302Z,99.90
2023-05-09T07:27:12.919Z,99.90
2023-05-09T07:29:45.338Z,99.90
2023-05-09T07:32:23.937Z,99.90
2023-05-09T07:34:59.199Z,99.90
2023-05-09T07:37:32.146Z,99.90
2023-05-09T07:40:06.890Z,99.90
2023-05-09T07:42:46.105Z,99.90
2023-05-09T07:45:23.912Z,99.90
2023-05-09T07:47:58.475Z,99.90
2023-05-09T07:50:31.078Z,99.90
2023-05-09T07:53:06.797Z,99.90
2023-05-09T07:55:40.148Z,99.90
2023-05-09T07:58:17.179Z,99.90
2023-05-09T08:00:50.003Z,99.90
2023-05-09T08:03:31.348Z,99.90
2023-05-09T08:06:04.434Z,99.90
2023-05-09T08:08:39.135Z,99.90
2023-05-09T08:11:14.395Z,99.90
2023-05-09T08:13:57.014Z,99.90
2023-05-09T08:16:37.982Z,99.90
2023-05-09T08:19:21.244Z,99.90
2023-05-09T08:21:57.032Z,99.90
2023-05-09T08:24:30.021Z,99.90
2023-05-09T08:27:02.220Z,99.90
2023-05-09T08:29:41.302Z,99.90
2023-05-09T08:32:15.526Z,99.90
2023-05-09T08:34:48.068Z,99.90
2023-05-09T08:37:22.611Z,99.90
2023-05-09T08:39:54.784Z,99.90
2023-05-09T08:42:45.600Z,99.90
2023-05-09T08:45:29.852Z,99.70
2023-05-09T08:48:10.201Z,99.40
2023-05-09T08:50:51.998Z,99.20
2023-05-09T08:53:39.000Z,98.80
2023-05-09T08:56:11.467Z,98.30
2023-05-09T08:58:44.449Z,97.50
2023-05-09T09:01:20.161Z,97.10
2023-05-09T09:03:56.088Z,96.50
2023-05-09T09:06:36.529Z,96.40
2023-05-09T09:09:09.544Z,95.80
2023-05-09T09:11:43.266Z,96.20
2023-05-09T09:14:28.025Z,96.30
2023-05-09T09:17:07.676Z,96.00
2023-05-09T09:19:45.407Z,95.30
2023-05-09T09:22:23.005Z,95.30
2023-05-09T09:25:05.922Z,95.10
2023-05-09T09:27:42.267Z,95.20
2023-05-09T09:30:17.137Z,95.30
2023-05-09T09:32:52.324Z,94.50
2023-05-09T09:35:28.034Z,94.40
2023-05-09T09:38:00.449Z,93.80
2023-05-09T09:40:33.852Z,93.70
2023-05-09T09:43:11.460Z,93.40
2023-05-09T09:45:49.403Z,92.90
2023-05-09T09:48:34.055Z,92.50
2023-05-09T09:51:15.049Z,92.60
2023-05-09T09:53:53.966Z,92.00
2023-05-09T09:56:40.038Z,91.50
2023-05-09T09:59:16.571Z,90.30
2023-05-09T10:02:01.583Z,89.60
2023-05-09T10:04:44.023Z,88.90
2023-05-09T10:07:25.894Z,88.30
2023-05-09T10:10:06.073Z,87.20
2023-05-09T10:12:46.027Z,87.40
2023-05-09T10:15:38.472Z,87.60
2023-05-09T10:18:23.628Z,87.00
2023-05-09T10:21:08.785Z,86.50
2023-05-09T10:23:49.028Z,86.90
2023-05-09T10:26:28.332Z,83.30
2023-05-09T10:29:10.617Z,83.00
2023-05-09T10:31:50.565Z,83.70
2023-05-09T10:34:27.935Z,83.30
2023-05-09T10:37:03.197Z,82.50
2023-05-09T10:39:36.562Z,81.00
2023-05-09T10:42:14.173Z,81.00
2023-05-09T10:44:58.880Z,80.20
2023-05-09T10:47:41.889Z,79.10
2023-05-09T10:50:18.758Z,78.80
2023-05-09T10:53:19.006Z,78.40
2023-05-09T10:55:54.135Z,78.50
2023-05-09T10:58:28.142Z,77.70
2023-05-09T11:01:04.984Z,77.30
2023-05-09T11:03:55.136Z,77.80
2023-05-09T11:06:49.330Z,76.20
2023-05-09T11:09:33.134Z,76.60
2023-05-09T11:12:11.203Z,76.10
2023-05-09T11:14:51.879Z,75.60
2023-05-09T11:17:34.345Z,74.20
2023-05-09T11:20:10.360Z,73.90
2023-05-09T11:22:48.465Z,73.20
2023-05-09T11:25:32.265Z,72.10
2023-05-09T11:28:05.171Z,72.00
2023-05-09T11:30:41.254Z,72.40
2023-05-09T11:33:24.231Z,72.10
2023-05-09T11:36:36.224Z,72.60
2023-05-09T11:39:10.988Z,71.40
2023-05-09T11:41:47.896Z,69.90
2023-05-09T11:44:22.058Z,68.90
2023-05-09T11:47:01.936Z,69.20
2023-05-09T11:49:40.075Z,67.50
2023-05-09T11:52:12.306Z,68.30
2023-05-09T11:54:44.560Z,67.90
2023-05-09T11:57:28.748Z,68.20
2023-05-09T12:00:07.152Z,67.20
2023-05-09T12:02:50.438Z,67.10
2023-05-09T12:05:29.506Z,66.80
2023-05-09T12:08:12.211Z,65.40
2023-05-09T12:10:53.450Z,64.60
2023-05-09T12:13:53.294Z,64.20
2023-05-09T12:16:30.656Z,64.30
2023-05-09T12:19:05.235Z,63.80
2023-05-09T12:21:40.993Z,64.00
2023-05-09T12:24:21.620Z,63.30
2023-05-09T12:26:56.892Z,63.30
2023-05-09T12:29:38.558Z,63.00
2023-05-09T12:32:11.034Z,62.80
2023-05-09T12:34:49.242Z,62.30
2023-05-09T12:37:39.020Z,62.00
2023-05-09T12:40:13.237Z,61.80
2023-05-09T12:42:47.523Z,62.30
2023-05-09T12:45:34.000Z,61.20
2023-05-09T12:48:06.569Z,59.40
2023-05-09T12:50:46.681Z,59.50
2023-05-09T12:53:28.224Z,57.10
2023-05-09T12:56:09.818Z,58.20
2023-05-09T12:58:48.912Z,58.70
2023-05-09T13:01:31.078Z,58.90
2023-05-09T13:04:04.639Z,58.50
2023-05-09T13:06:51.180Z,58.00
2023-05-09T13:09:24.816Z,57.20
2023-05-09T13:11:57.636Z,57.00
2023-05-09T13:14:33.373Z,57.50
2023-05-09T13:17:10.040Z,56.80
2023-05-09T13:19:42.201Z,57.30
2023-05-09T13:22:20.389Z,57.60
2023-05-09T13:25:03.621Z,56.80
2023-05-09T13:27:36.144Z,56.80
2023-05-09T13:30:09.431Z,56.60
2023-05-09T13:32:46.179Z,56.40
2023-05-09T13:35:23.721Z,56.70
2023-05-09T13:37:59.026Z,56.40
2023-05-09T13:40:32.746Z,55.20
2023-05-09T13:43:07.000Z,54.70
2023-05-09T13:45:39.376Z,54.70
2023-05-09T13:48:14.187Z,54.30
2023-05-09T13:50:54.394Z,54.80
2023-05-09T13:53:35.812Z,54.90
2023-05-09T13:56:13.150Z,55.50
2023-05-09T13:58:46.779Z,55.50
2023-05-09T14:01:19.826Z,56.10
2023-05-09T14:03:55.667Z,55.60
2023-05-09T14:06:29.203Z,56.00
2023-05-09T14:09:02.151Z,56.60
2023-05-09T14:11:41.841Z,56.80
2023-05-09T14:14:16.476Z,56.20
2023-05-09T14:16:52.984Z,56.30
2023-05-09T14:19:30.674Z,56.50
2023-05-09T14:22:03.110Z,56.10
2023-05-09T14:24:36.533Z,55.80
2023-05-09T14:27:12.783Z,55.20
2023-05-09T14:29:51.041Z,55.30
2023-05-09T14:32:27.439Z,56.40
2023-05-09T14:35:07.429Z,56.30
2023-05-09T14:37:41.631Z,56.20
2023-05-09T14:40:16.507Z,56.00
2023-05-09T14:42:50.779Z,55.80
2023-05-09T14:45:23.586Z,56.30
2023-05-09T14:47:58.781Z,55.80
2023-05-09T14:50:33.841Z,55.60
2023-05-09T14:53:07.186Z,56.10
2023-05-09T14:55:42.091Z,56.90
2023-05-09T14:58:16.310Z,57.20
2023-05-09T15:00:53.565Z,56.80
2023-05-09T15:03:27.869Z,57.00
2023-05-09T15:06:04.608Z,57.40
2023-05-09T15:08:39.156Z,58.00
2023-05-09T15:11:13.229Z,57.80
2023-05-09T15:13:46.828Z,57.30
2023-05-09T15:16:20.844Z,57.10
2023-05-09T15:18:56.660Z,57.50
2023-05-09T15:21:32.604Z,57.80
2023-05-09T15:24:20.643Z,57.80
2023-05-09T15:27:01.104Z,58.00
2023-05-09T15:29:33.427Z,58.00
2023-05-09T15:32:15.972Z,58.60
2023-05-09T15:35:01.348Z,59.40
2023-05-09T15:37:40.680Z,61.30
2023-05-09T15:40:16.934Z,62.60
2023-05-09T15:42:51.475Z,63.40
2023-05-09T15:45:24.716Z,64.90
2023-05-09T15:47:58.004Z,65.50
2023-05-09T15:50:30.772Z,65.80
2023-05-09T15:53:06.479Z,64.80
2023-05-09T15:55:40.223Z,64.30
2023-05-09T15:58:20.609Z,64.10
2023-05-09T16:00:55.100Z,63.70
2023-05-09T16:03:28.276Z,63.70
2023-05-09T16:06:02.734Z,63.50
2023-05-09T16:08:38.831Z,63.10
2023-05-09T16:11:11.473Z,68.90
2023-05-09T16:13:43.842Z,73.70
2023-05-09T16:16:17.703Z,76.90
2023-05-09T16:18:52.802Z,80.60
2023-05-09T16:21:29.270Z,87.50
2023-05-09T16:24:06.307Z,91.20
2023-05-09T16:26:39.430Z,90.90
2023-05-09T16:29:14.088Z,92.10
2023-05-09T16:31:46.393Z,93.00
2023-05-09T16:34:21.434Z,94.00
2023-05-09T16:36:54.353Z,95.30
2023-05-09T16:39:30.853Z,96.30
2023-05-09T16:42:06.149Z,97.30
2023-05-09T16:44:40.877Z,99.50
2023-05-09T16:47:14.169Z,99.90
2023-05-09T16:49:47.084Z,99.90
2023-05-09T16:52:20.731Z,99.90
2023-05-09T16:54:55.805Z,99.90
2023-05-09T16:57:27.957Z,99.90
2023-05-09T17:00:00.202Z,99.90
2023-05-09T17:02:32.787Z,99.90
2023-05-09T17:05:07.730Z,99.90
2023-05-09T17:07:41.986Z,99.90
2023-05-09T17:10:36.472Z,99.90
2023-05-09T17:13:11.078Z,99.90
2023-05-09T17:15:44.236Z,99.90
2023-05-09T17:18:22.034Z,99.90
2023-05-09T17:21:05.724Z,99.90
2023-05-09T17:23:38.986Z,99.90
2023-05-09T17:26:19.202Z,99.90
2023-05-09T17:28:51.829Z,99.90
2023-05-09T17:31:24.010Z,99.90
2023-05-09T17:33:57.307Z,99.90
2023-05-09T17:36:30.034Z,99.90
2023-05-09T17:39:02.976Z,99.90
2023-05-09T17:41:38.787Z,99.90
2023-05-09T17:44:12.010Z,99.90
2023-05-09T17:46:44.332Z,99.90
2023-05-09T17:49:17.035Z,99.90
2023-05-09T17:51:50.044Z,99.90
2023-05-09T17:54:22.923Z,99.90
2023-05-09T17:57:01.807Z,99.90
2023-05-09T17:59:33.972Z,99.90
2023-05-09T18:02:07.727Z,99.90
2023-05-09T18:04:41.370Z,99.90
2023-05-09T18:07:15.715Z,99.90
2023-05-09T18:09:48.572Z,99.90
2023-05-09T18:12:47.758Z,99.90
2023-05-09T18:30:19.643Z,99.90
2023-05-09T18:33:25.071Z,99.90
2023-05-09T18:38:04.096Z,99.90
2023-05-09T18:40:34.066Z,99.90
2023-05-09T18:43:41.355Z,99.90
2023-05-09T18:46:42.059Z,99.90
2023-05-09T18:49:55.967Z,99.90
2023-05-09T18:52:37.471Z,99.90
2023-05-09T18:56:13.730Z,99.90
2023-05-09T18:59:36.602Z,99.90
2023-05-09T19:03:08.947Z,99.90
2023-05-09T19:06:17.474Z,99.90
2023-05-09T19:12:06.230Z,99.90
2023-05-09T19:18:54.828Z,99.90
2023-05-09T19:21:47.595Z,99.90
2023-05-09T19:24:57.852Z,99.90
2023-05-09T19:28:11.762Z,99.90
2023-05-09T19:31:32.935Z,99.90
2023-05-09T19:35:05.338Z,99.90
2023-05-09T19:38:03.701Z,99.90
2023-05-09T19:40:57.726Z,99.90
2023-05-09T19:43:55.978Z,99.90
2023-05-09T19:46:49.334Z,99.90
2023-05-09T19:49:53.582Z,99.90
2023-05-09T19:52:37.337Z,99.90
2023-05-09T19:55:19.372Z,99.90
2023-05-09T19:57:55.972Z,99.90
2023-05-09T20:00:34.439Z,99.90
2023-05-09T20:03:07.220Z,99.90
2023-05-09T20:05:43.670Z,99.90
2023-05-09T20:08:16.779Z,99.90
2023-05-09T20:10:51.732Z,99.90
2023-05-09T20:13:24.206Z,99.90
2023-05-09T20:15:58.072Z,99.90
2023-05-09T20:18:33.686Z,99.90
2023-05-09T20:21:10.353Z,99.90
2023-05-09T20:23:44.058Z,99.90
2023-05-09T20:26:18.564Z,99.90
2023-05-09T20:28:51.755Z,99.90
2023-05-09T20:31:25.982Z,99.90
2023-05-09T20:33:59.116Z,99.90
2023-05-09T20:36:35.310Z,99.90
2023-05-09T20:39:09.197Z,99.90
2023-05-09T20:41:44.844Z,99.90
2023-05-09T20:44:18.458Z,99.90
2023-05-09T20:46:51.348Z,99.90
2023-05-09T20:49:24.907Z,99.90
2023-05-09T20:52:02.045Z,99.90
2023-05-09T20:54:34.727Z,99.90
2023-05-09T20:57:08.068Z,99.90
2023-05-09T20:59:41.609Z,99.90
2023-05-09T21:02:13.903Z,99.90
2023-05-09T21:04:46.148Z,99.90
2023-05-09T21:07:21.948Z,99.90
2023-05-09T21:09:55.554Z,99.90
2023-05-09T21:12:28.203Z,99.90
2023-05-09T21:15:01.749Z,99.90
2023-05-09T21:17:34.053Z,99.90
2023-05-09T21:20:09.376Z,99.90
2023-05-09T21:22:44.732Z,99.90
2023-05-09T21:25:20.926Z,99.90
2023-05-09T21:27:55.243Z,99.90
2023-05-09T21:30:31.179Z,99.90
2023-05-09T21:33:05.266Z,99.90
2023-05-09T21:35:43.976Z,99.90
2023-05-09T21:38:22.218Z,99.90
2023-05-09T21:40:55.932Z,99.90
2023-05-09T21:43:31.670Z,99.90
2023-05-09T21:46:11.760Z,99.90
2023-05-09T21:48:47.021Z,99.90
2023-05-09T21:51:23.354Z,99.90
2023-05-09T21:54:03.694Z,99.90
2023-05-09T21:56:39.230Z,99.90
2023-05-09T21:59:14.288Z,99.90
2023-05-09T22:01:48.207Z,99.90
2023-05-09T22:04:22.201Z,99.90
2023-05-09T22:06:56.061Z,99.90
2023-05-09T22:09:33.188Z,99.90
2023-05-09T22:12:11.366Z,99.90
2023-05-09T22:14:58.639Z,99.90
2023-05-09T22:17:35.355Z,99.90
2023-05-09T22:20:11.154Z,99.90
2023-05-09T22:22:45.664Z,99.90
2023-05-09T22:25:25.367Z,99.90
2023-05-09T22:28:15.508Z,99.90
2023-05-09T22:30:48.474Z,99.90
2023-05-09T22:33:21.344Z,99.90
2023-05-09T22:35:54.023Z,99.90
2023-05-09T22:38:28.852Z,99.90
2023-05-09T22:41:03.868Z,99.90
2023-05-09T22:43:39.101Z,99.90
2023-05-09T22:46:13.970Z,99.90
2023-05-09T22:48:46.885Z,99.90
2023-05-09T22:51:20.494Z,99.90
2023-05-09T22:53:53.072Z,99.90
2023-05-09T22:56:32.639Z,99.90
2023-05-09T22:59:13.140Z,99.90
2023-05-09T23:01:49.127Z,99.90
2023-05-09T23:04:24.816Z,99.90
2023-05-09T23:07:02.446Z,99.90
2023-05-09T23:09:35.502Z,99.90
2023-05-09T23:12:10.877Z,99.90
2023-05-09T23:14:43.845Z,99.90
2023-05-09T23:17:17.172Z,99.90
2023-05-09T23:19:50.403Z,99.90
2023-05-09T23:22:23.055Z,99.90
2023-05-09T23:24:56.097Z,99.90
2023-05-09T23:27:35.012Z,99.90
2023-05-09T23:30:09.907Z,99.90
2023-05-09T23:32:42.620Z,99.90
2023-05-09T23:35:25.572Z,99.90
2023-05-09T23:38:03.822Z,99.90
2023-05-09T23:40:47.147Z,99.90
2023-05-09T23:43:29.262Z,99.90
2023-05-09T23:46:06.683Z,99.90
2023-05-09T23:48:44.471Z,99.90
2023-05-09T23:51:28.563Z,99.90
2023-05-09T23:54:14.341Z,99.90
2023-05-09T23:57:03.150Z,99.90
2023-05-09T23:59:55.209Z,99.90
